Terminal Aerodrome Forecast
Issued by NWS Chicago, IL

Home | Current Version | Previous Version | Graphics & Text | Print | Product List | Glossary On
Versions: 1 2 3 4 5 6 7 8 9 10 11 12 13 14 15 16 17 18 19 20 21 22 23 24 25 26 27 28 29 30 31 32 33 34 35 36 37
000
FTUS43 KLOT 030520
TAFRFD
TAF
KRFD 030520Z 0306/0406 19005KT P6SM BKN120
     FM031300 19011KT P6SM VCSH BKN070
     FM031600 21017G25KT P6SM SCT050 BKN100
     FM040000 19012KT P6SM BKN080=

USA.gov is the U.S. government's official web portal to all federal, state and local government web resources and services.